This is the latest recevied weather packets stored in our database for station/object OK1FET-4. If no packets are shown the sender has not sent any weather packets the latest 1 day(s).
| Time | Temp. | Humidity | Pressure | Rain* | Wind** | Luminosity | Snow |
|---|---|---|---|---|---|---|---|
| 1778066600 | 23.89° C | 54% | 1007.3 hPa | - | - | - | - |
| 1778066600 | 23.89° C | 54% | 1007.3 hPa | - | - | - | - |
| 1778065696 | 21.67° C | 64% | 1007.6 hPa | - | - | - | - |
| 1778065696 | 21.67° C | 64% | 1007.6 hPa | - | - | - | - |
| 1778065696 | 21.67° C | 64% | 1007.6 hPa | - | - | - | - |
| 1778064491 | 21.11° C | 64% | 1007.6 hPa | - | - | - | - |
| 1778064491 | 21.11° C | 64% | 1007.6 hPa | - | - | - | - |
| 1778064190 | 21.11° C | 67% | 1007.6 hPa | - | - | - | - |
| 1778064190 | 21.11° C | 67% | 1007.6 hPa | - | - | - | - |
| 1778064190 | 21.11° C | 67% | 1007.6 hPa | - | - | - | - |
| 1778062985 | 20° C | 63% | 1007.7 hPa | - | - | - | - |
| 1778062082 | 20.56° C | 59% | 1007.6 hPa | - | - | - | - |
| 1778060879 | 18.33° C | 61% | 1007.8 hPa | - | - | - | - |
| 1778060879 | 18.33° C | 61% | 1007.8 hPa | - | - | - | - |
| 1778060277 | 19.44° C | 60% | 1007.7 hPa | - | - | - | - |
| 1778060277 | 19.44° C | 60% | 1007.7 hPa | - | - | - | - |
| 1778060277 | 19.44° C | 60% | 1007.7 hPa | - | - | - | - |
| 1778059976 | 18.89° C | 64% | 1007.8 hPa | - | - | - | - |
| 1778059976 | 18.89° C | 64% | 1007.8 hPa | - | - | - | - |
| 1778059675 | 18.33° C | 70% | 1007.9 hPa | - | - | - | - |
| 1778059074 | 18.33° C | 67% | 1007.8 hPa | - | - | - | - |
| 1778058773 | 17.22° C | 69% | 1007.9 hPa | - | - | - | - |
| 1778058773 | 17.22° C | 69% | 1007.9 hPa | - | - | - | - |
| 1778058773 | 17.22° C | 69% | 1007.9 hPa | - | - | - | - |
| 1778058472 | 17.22° C | 68% | 1007.9 hPa | - | - | - | - |
* Rain since midnight (hover to see other rain measurements)
** Current wind speed in m/s (hover to see current wind gust speed)